createdAt,value
2019-04-09T00:14:20.102Z,18.70
2019-04-09T00:17:57.240Z,18.60
2019-04-09T00:24:53.290Z,16.87
2019-04-09T00:28:13.608Z,16.87
2019-04-09T00:31:02.953Z,17.27
2019-04-09T00:34:42.313Z,19.77
2019-04-09T00:38:16.301Z,17.37
2019-04-09T00:41:20.840Z,19.10
2019-04-09T00:44:20.042Z,18.77
2019-04-09T00:48:29.690Z,19.00
2019-04-09T00:55:35.223Z,18.53
2019-04-09T00:58:26.715Z,20.43
2019-04-09T01:01:17.523Z,20.57
2019-04-09T01:04:07.631Z,20.63
2019-04-09T01:07:05.969Z,18.93
2019-04-09T01:09:55.541Z,19.97
2019-04-09T01:12:58.015Z,20.87
2019-04-09T01:17:03.524Z,17.37
2019-04-09T01:19:56.350Z,20.57
2019-04-09T01:22:45.493Z,20.20
2019-04-09T01:25:51.223Z,19.70
2019-04-09T01:28:53.546Z,19.97
2019-04-09T01:32:00.143Z,21.10
2019-04-09T01:35:16.262Z,19.37
2019-04-09T01:38:47.011Z,21.13
2019-04-09T01:41:57.669Z,21.37
2019-04-09T01:49:05.257Z,20.43
2019-04-09T01:55:35.642Z,23.50
2019-04-09T01:58:33.174Z,22.10
2019-04-09T02:01:39.965Z,22.00
2019-04-09T02:04:37.847Z,21.87
2019-04-09T02:07:44.343Z,23.30
2019-04-09T02:10:43.120Z,22.10
2019-04-09T02:13:49.335Z,23.60
2019-04-09T02:16:54.637Z,22.77
2019-04-09T02:19:59.438Z,23.40
2019-04-09T02:22:55.478Z,21.27
2019-04-09T02:25:49.906Z,23.27
2019-04-09T02:29:06.606Z,22.23
2019-04-09T02:32:11.911Z,21.27
2019-04-09T02:35:21.900Z,23.07
2019-04-09T02:38:40.911Z,22.20
2019-04-09T02:41:46.498Z,22.23
2019-04-09T02:44:52.178Z,21.13
2019-04-09T02:47:50.503Z,22.43
2019-04-09T02:50:44.680Z,22.57
2019-04-09T02:53:58.584Z,25.93
2019-04-09T02:56:57.316Z,23.03
2019-04-09T03:00:08.041Z,22.97
2019-04-09T03:03:06.352Z,24.27
2019-04-09T03:06:20.223Z,22.37
2019-04-09T03:09:37.176Z,20.87
2019-04-09T03:12:50.262Z,18.50
2019-04-09T03:16:00.409Z,21.20
2019-04-09T03:19:07.138Z,20.30
2019-04-09T03:22:15.158Z,21.73
2019-04-09T03:25:14.963Z,19.27
2019-04-09T03:28:18.273Z,19.87
2019-04-09T03:31:36.890Z,19.30
2019-04-09T03:35:02.566Z,18.23
2019-04-09T03:38:15.915Z,21.00
2019-04-09T03:41:19.403Z,19.17
2019-04-09T03:44:25.399Z,17.63
2019-04-09T03:47:26.394Z,17.90
2019-04-09T03:50:40.000Z,17.67
2019-04-09T03:53:50.377Z,17.47
2019-04-09T03:57:04.295Z,18.90
2019-04-09T04:00:10.264Z,19.50
2019-04-09T04:11:57.275Z,19.47
2019-04-09T04:14:57.372Z,19.87
2019-04-09T04:18:14.024Z,19.93
2019-04-09T04:21:21.780Z,18.90
2019-04-09T04:33:03.029Z,17.50
2019-04-09T04:40:44.858Z,17.60
2019-04-09T04:55:21.650Z,19.10
2019-04-09T04:58:21.678Z,18.23
2019-04-09T05:01:28.526Z,17.50
2019-04-09T05:04:42.472Z,17.80
2019-04-09T05:07:53.167Z,21.20
2019-04-09T05:10:54.337Z,20.37
2019-04-09T05:13:53.139Z,18.40
2019-04-09T05:16:56.091Z,20.77
2019-04-09T05:19:54.746Z,19.17
2019-04-09T05:23:01.135Z,22.83
2019-04-09T05:26:00.398Z,23.53
2019-04-09T05:29:03.939Z,22.50
2019-04-09T05:32:10.325Z,21.70
2019-04-09T05:35:16.156Z,22.53
2019-04-09T05:38:11.438Z,23.17
2019-04-09T05:41:25.627Z,25.70
2019-04-09T05:44:23.743Z,22.63
2019-04-09T05:47:24.128Z,22.87
2019-04-09T05:50:30.104Z,22.93
2019-04-09T05:53:33.765Z,22.53
2019-04-09T05:56:57.267Z,21.97
2019-04-09T06:17:51.921Z,23.97
2019-04-09T06:24:31.561Z,23.93
2019-04-09T06:27:24.435Z,24.00
2019-04-09T06:30:13.429Z,24.70
2019-04-09T06:33:57.177Z,28.00
2019-04-09T06:37:08.270Z,23.50
2019-04-09T06:40:08.364Z,25.00
2019-04-09T06:43:14.971Z,24.87
2019-04-09T06:46:29.643Z,25.13
2019-04-09T06:49:47.150Z,26.07
2019-04-09T06:52:54.915Z,23.80
2019-04-09T06:56:05.028Z,23.57
2019-04-09T06:59:11.275Z,23.93
2019-04-09T07:02:18.061Z,23.73
2019-04-09T07:05:34.599Z,22.77
2019-04-09T07:08:46.266Z,23.30
2019-04-09T07:12:09.238Z,23.13
2019-04-09T07:15:11.076Z,21.60
2019-04-09T07:18:24.097Z,23.83
2019-04-09T07:21:41.075Z,21.57
2019-04-09T07:24:43.199Z,22.90
2019-04-09T07:27:52.560Z,24.07
2019-04-09T07:31:09.503Z,23.73
2019-04-09T07:34:10.412Z,25.20
2019-04-09T07:37:15.767Z,26.97
2019-04-09T07:40:42.733Z,26.50
2019-04-09T07:43:47.870Z,24.50
2019-04-09T07:47:13.244Z,24.67
2019-04-09T07:50:47.548Z,22.60
2019-04-09T07:54:02.224Z,24.73
2019-04-09T07:57:24.071Z,24.80
2019-04-09T08:03:40.870Z,26.00
2019-04-09T08:06:49.795Z,27.40
2019-04-09T08:09:48.009Z,29.90
2019-04-09T08:12:58.585Z,25.53
2019-04-09T08:16:29.490Z,26.27
2019-04-09T08:19:37.949Z,27.87
2019-04-09T08:22:51.318Z,26.37
2019-04-09T08:26:09.181Z,27.10
2019-04-09T08:29:17.689Z,26.60
2019-04-09T08:32:30.816Z,29.40
2019-04-09T08:35:46.125Z,28.33
2019-04-09T08:38:53.281Z,28.30
2019-04-09T08:42:06.890Z,26.80
2019-04-09T08:45:36.745Z,28.53
2019-04-09T08:49:00.043Z,29.87
2019-04-09T08:52:28.068Z,27.53
2019-04-09T08:55:31.185Z,27.17
2019-04-09T08:58:57.394Z,29.47
2019-04-09T09:02:29.193Z,35.17
2019-04-09T09:05:52.913Z,31.57
2019-04-09T09:08:50.943Z,34.10
2019-04-09T09:12:00.937Z,32.60
2019-04-09T09:14:54.154Z,34.73
2019-04-09T09:17:48.604Z,36.50
2019-04-09T09:20:48.910Z,34.87
2019-04-09T09:23:57.654Z,35.60
2019-04-09T09:27:05.068Z,34.20
2019-04-09T09:30:08.188Z,35.00
2019-04-09T09:33:28.817Z,33.20
2019-04-09T09:36:35.747Z,34.60
2019-04-09T09:39:36.271Z,35.33
2019-04-09T09:42:38.691Z,34.37
2019-04-09T09:45:46.191Z,32.50
2019-04-09T09:48:59.296Z,32.33
2019-04-09T09:52:02.670Z,33.80
2019-04-09T09:54:58.550Z,32.20
2019-04-09T09:58:23.293Z,34.30
2019-04-09T10:04:30.512Z,35.83
2019-04-09T10:06:09.213Z,32.30
2019-04-09T10:07:50.429Z,30.07
2019-04-09T10:11:01.652Z,30.00
2019-04-09T10:14:00.443Z,30.13
2019-04-09T10:17:20.180Z,31.30
2019-04-09T10:20:35.626Z,28.40
2019-04-09T10:23:39.974Z,29.77
2019-04-09T10:26:49.655Z,28.83
2019-04-09T10:29:49.883Z,27.10
2019-04-09T10:32:59.304Z,30.30
2019-04-09T10:36:18.411Z,28.53
2019-04-09T10:39:22.857Z,27.00
2019-04-09T10:42:33.439Z,28.80
2019-04-09T10:45:28.212Z,27.97
2019-04-09T10:48:32.274Z,30.17
2019-04-09T10:51:33.433Z,25.23
2019-04-09T10:54:43.580Z,29.33
2019-04-09T10:57:41.381Z,26.90
2019-04-09T11:00:35.225Z,25.07
2019-04-09T11:03:43.679Z,25.10
2019-04-09T11:06:50.854Z,26.37
2019-04-09T11:10:20.513Z,24.63
2019-04-09T11:13:16.544Z,25.00
2019-04-09T11:16:23.200Z,23.70
2019-04-09T11:19:35.068Z,26.73
2019-04-09T11:22:55.399Z,23.87
2019-04-09T11:26:00.040Z,24.73
2019-04-09T11:29:08.087Z,23.00
2019-04-09T11:32:14.214Z,25.93
2019-04-09T11:35:24.464Z,24.80
2019-04-09T11:38:37.726Z,25.87
2019-04-09T11:41:47.760Z,25.40
2019-04-09T11:45:05.631Z,21.50
2019-04-09T11:48:05.743Z,20.63
2019-04-09T11:51:22.053Z,21.10
2019-04-09T11:54:47.334Z,22.17
2019-04-09T11:57:46.702Z,20.57
2019-04-09T12:00:54.302Z,20.30
2019-04-09T12:04:13.738Z,19.17
2019-04-09T12:07:13.556Z,16.43
2019-04-09T12:10:12.843Z,15.67
2019-04-09T12:13:18.266Z,23.00
2019-04-09T12:16:13.630Z,19.57
2019-04-09T12:19:18.476Z,17.93
2019-04-09T12:22:24.286Z,21.40
2019-04-09T12:25:44.122Z,19.70
2019-04-09T12:29:05.288Z,19.70
2019-04-09T12:31:54.537Z,19.77
2019-04-09T12:34:50.421Z,19.20
2019-04-09T12:38:02.036Z,20.17
2019-04-09T12:41:09.446Z,21.00
2019-04-09T12:44:14.082Z,19.00
2019-04-09T12:47:21.919Z,20.07
2019-04-09T12:50:42.485Z,20.20
2019-04-09T12:53:46.003Z,19.87
2019-04-09T12:56:47.435Z,15.90
2019-04-09T13:00:01.371Z,18.33
2019-04-09T13:03:07.374Z,18.90
2019-04-09T13:06:17.361Z,17.87
2019-04-09T13:09:28.655Z,19.03
2019-04-09T13:12:52.118Z,19.00
2019-04-09T13:15:52.582Z,19.23
2019-04-09T13:18:59.109Z,21.47
2019-04-09T13:22:01.566Z,19.90
2019-04-09T13:24:59.559Z,22.40
2019-04-09T13:28:10.110Z,18.43
2019-04-09T13:31:18.920Z,19.60
2019-04-09T13:34:28.725Z,20.60
2019-04-09T13:37:35.486Z,20.70
2019-04-09T13:40:35.703Z,20.93
2019-04-09T13:43:38.320Z,20.30
2019-04-09T13:46:49.177Z,20.60
2019-04-09T13:49:56.639Z,23.00
2019-04-09T13:52:44.687Z,20.33
2019-04-09T13:55:32.493Z,20.07
2019-04-09T13:58:20.532Z,20.87
2019-04-09T14:01:08.933Z,21.90
2019-04-09T14:04:06.405Z,21.50
2019-04-09T14:06:55.190Z,20.33
2019-04-09T14:09:44.058Z,21.00
2019-04-09T14:12:32.651Z,22.30
2019-04-09T14:15:22.358Z,21.53
2019-04-09T14:18:10.598Z,18.70
2019-04-09T14:21:00.157Z,20.33
2019-04-09T14:23:48.816Z,20.30
2019-04-09T14:26:36.904Z,19.70
2019-04-09T14:29:24.957Z,19.97
2019-04-09T14:32:14.039Z,19.93
2019-04-09T14:35:01.583Z,19.37
2019-04-09T14:37:49.059Z,19.80
2019-04-09T14:40:36.474Z,20.07
2019-04-09T14:43:25.852Z,16.83
2019-04-09T14:46:14.046Z,16.20
2019-04-09T14:49:01.698Z,14.83
2019-04-09T14:51:50.154Z,14.23
2019-04-09T14:54:38.171Z,15.97
2019-04-09T14:57:26.969Z,15.20
2019-04-09T15:00:19.187Z,14.17
2019-04-09T15:03:16.851Z,15.27
2019-04-09T15:05:57.288Z,16.10
2019-04-09T15:08:46.110Z,15.30
2019-04-09T15:11:34.818Z,15.13
2019-04-09T15:14:22.474Z,15.43
2019-04-09T15:17:11.711Z,16.30
2019-04-09T15:20:00.771Z,16.07
2019-04-09T15:22:49.338Z,15.47
2019-04-09T15:25:39.800Z,15.30
2019-04-09T15:28:26.341Z,15.60
2019-04-09T15:31:13.542Z,14.97
2019-04-09T15:34:01.896Z,14.63
2019-04-09T15:36:50.133Z,15.27
2019-04-09T15:39:38.081Z,16.47
2019-04-09T15:42:26.265Z,14.40
2019-04-09T15:45:14.756Z,13.27
2019-04-09T15:48:03.473Z,16.50
2019-04-09T15:50:52.739Z,15.07
2019-04-09T15:53:43.070Z,13.47
2019-04-09T15:56:31.475Z,13.30
2019-04-09T15:59:19.102Z,14.93
2019-04-09T16:02:07.911Z,14.63
2019-04-09T16:04:56.756Z,15.03
2019-04-09T16:07:44.782Z,16.70
2019-04-09T16:10:32.788Z,16.20
2019-04-09T16:13:22.094Z,15.97
2019-04-09T16:16:11.605Z,15.27
2019-04-09T16:19:00.840Z,16.63
2019-04-09T16:21:49.046Z,15.50
2019-04-09T16:24:36.689Z,15.90
2019-04-09T16:27:25.871Z,17.83
2019-04-09T16:30:15.292Z,16.70
2019-04-09T16:33:10.788Z,15.90
2019-04-09T16:35:53.586Z,16.37
2019-04-09T16:38:42.399Z,13.77
2019-04-09T16:41:30.051Z,20.73
2019-04-09T16:47:11.838Z,19.87
2019-04-09T16:50:00.569Z,17.67
2019-04-09T16:52:48.804Z,20.60
2019-04-09T16:55:37.372Z,19.70
2019-04-09T16:58:25.502Z,20.70
2019-04-09T17:01:13.724Z,19.73
2019-04-09T17:04:13.383Z,18.13
2019-04-09T17:06:53.186Z,19.73
2019-04-09T17:09:41.757Z,20.27
2019-04-09T17:12:30.162Z,18.10
2019-04-09T17:15:18.173Z,20.37
2019-04-09T17:18:06.447Z,21.10
2019-04-09T17:20:58.130Z,20.60
2019-04-09T17:23:45.934Z,20.47
2019-04-09T17:26:34.501Z,18.83
2019-04-09T17:29:22.987Z,20.13
2019-04-09T17:32:11.780Z,20.97
2019-04-09T17:35:00.420Z,20.47
2019-04-09T17:37:48.678Z,20.80
2019-04-09T17:40:38.028Z,21.07
2019-04-09T17:43:28.795Z,21.30
2019-04-09T17:46:20.360Z,21.17
2019-04-09T17:49:13.084Z,21.40
2019-04-09T17:52:01.748Z,20.67
2019-04-09T17:54:54.669Z,19.50
2019-04-09T17:57:42.824Z,22.10
2019-04-09T18:00:31.098Z,20.63
2019-04-09T18:03:20.805Z,20.90
2019-04-09T18:06:11.159Z,24.13
2019-04-09T18:08:59.529Z,24.00
2019-04-09T18:11:47.847Z,26.13
2019-04-09T18:14:36.602Z,27.73
2019-04-09T18:17:25.364Z,28.03
2019-04-09T18:20:14.174Z,29.57
2019-04-09T18:23:05.692Z,30.30
2019-04-09T18:25:59.803Z,40.50
2019-04-09T18:28:44.810Z,31.07
2019-04-09T18:31:35.175Z,28.43
2019-04-09T18:34:24.956Z,29.70
2019-04-09T18:37:13.667Z,31.30
2019-04-09T18:40:02.087Z,28.43
2019-04-09T18:42:50.879Z,32.60
2019-04-09T18:45:39.613Z,28.70
2019-04-09T18:48:44.229Z,29.20
2019-04-09T18:51:28.465Z,30.00
2019-04-09T18:55:02.313Z,30.47
2019-04-09T18:58:49.967Z,29.00
2019-04-09T19:01:15.225Z,28.03
2019-04-09T19:04:09.485Z,30.10
2019-04-09T19:07:24.318Z,29.80
2019-04-09T19:10:25.877Z,30.60
2019-04-09T19:14:13.471Z,30.70
2019-04-09T19:17:04.498Z,29.23
2019-04-09T19:20:17.161Z,31.57
2019-04-09T19:22:57.849Z,30.33
2019-04-09T19:25:56.453Z,29.73
2019-04-09T19:28:56.379Z,28.83
2019-04-09T19:32:11.174Z,30.57
2019-04-09T19:35:15.448Z,30.10
2019-04-09T19:37:53.671Z,30.13
2019-04-09T19:40:42.549Z,29.47
2019-04-09T19:43:30.847Z,30.37
2019-04-09T19:46:19.125Z,31.33
2019-04-09T19:49:07.850Z,30.53
2019-04-09T19:51:55.782Z,29.37
2019-04-09T19:54:43.458Z,31.70
2019-04-09T19:57:32.197Z,31.00
2019-04-09T20:00:21.915Z,31.27
2019-04-09T20:03:10.130Z,28.33
2019-04-09T20:06:01.507Z,31.47
2019-04-09T20:08:49.675Z,33.40
2019-04-09T20:11:43.809Z,33.27
2019-04-09T20:14:32.616Z,31.40
2019-04-09T20:17:20.829Z,33.37
2019-04-09T20:20:09.647Z,30.30
2019-04-09T20:22:59.590Z,32.73
2019-04-09T20:25:53.629Z,29.97
2019-04-09T20:29:10.837Z,29.57
2019-04-09T20:31:59.935Z,31.60
2019-04-09T20:34:59.374Z,30.77
2019-04-09T20:37:43.605Z,30.07
2019-04-09T20:40:32.223Z,32.63
2019-04-09T20:43:20.492Z,32.60
2019-04-09T20:46:08.590Z,33.33
2019-04-09T20:48:57.654Z,33.87
2019-04-09T20:51:46.631Z,32.30
2019-04-09T20:54:42.954Z,32.27
2019-04-09T20:57:31.553Z,32.10
2019-04-09T21:00:59.963Z,33.20
2019-04-09T21:04:04.074Z,34.20
2019-04-09T21:06:49.722Z,30.60
2019-04-09T21:09:39.356Z,32.63
2019-04-09T21:12:28.976Z,34.23
2019-04-09T21:15:18.486Z,32.80
2019-04-09T21:18:06.958Z,32.47
2019-04-09T21:20:55.283Z,35.17
2019-04-09T21:23:44.363Z,31.97
2019-04-09T21:26:34.184Z,32.30
2019-04-09T21:29:22.318Z,32.07
2019-04-09T21:32:10.591Z,32.23
2019-04-09T21:34:59.158Z,32.47
2019-04-09T21:37:48.452Z,30.80
2019-04-09T21:40:36.742Z,32.50
2019-04-09T21:43:25.560Z,36.73
2019-04-09T21:46:15.172Z,34.47
2019-04-09T21:49:03.643Z,33.23
2019-04-09T21:51:52.404Z,33.03
2019-04-09T21:54:40.218Z,33.97
2019-04-09T21:57:28.000Z,32.23
2019-04-09T22:00:22.534Z,33.67
2019-04-09T22:03:11.376Z,32.03
2019-04-09T22:06:00.909Z,37.53
2019-04-09T22:08:49.298Z,33.73
2019-04-09T22:11:37.222Z,34.67
2019-04-09T22:14:26.368Z,33.70
2019-04-09T22:17:15.928Z,35.83
2019-04-09T22:20:07.044Z,34.03
2019-04-09T22:22:54.286Z,31.93
2019-04-09T22:25:45.208Z,32.30
2019-04-09T22:28:33.023Z,34.03
2019-04-09T22:31:21.434Z,32.33
2019-04-09T22:34:09.494Z,33.57
2019-04-09T22:37:03.482Z,36.20
2019-04-09T22:39:52.652Z,34.83
2019-04-09T22:42:40.778Z,32.37
2019-04-09T22:45:29.398Z,34.73
2019-04-09T22:48:17.973Z,33.40
2019-04-09T22:51:06.467Z,31.90
2019-04-09T22:53:54.788Z,35.47
2019-04-09T22:56:43.306Z,34.00
2019-04-09T22:59:33.474Z,33.00
2019-04-09T23:02:36.558Z,33.00
2019-04-09T23:05:49.340Z,34.93
2019-04-09T23:08:39.063Z,34.10
2019-04-09T23:11:30.622Z,33.70
2019-04-09T23:14:18.751Z,32.53
2019-04-09T23:17:07.981Z,34.53
2019-04-09T23:19:56.522Z,34.30
2019-04-09T23:22:45.124Z,31.90
2019-04-09T23:25:33.140Z,35.10
2019-04-09T23:28:21.276Z,32.90
2019-04-09T23:31:10.459Z,32.80
2019-04-09T23:33:59.092Z,29.93
2019-04-09T23:36:55.780Z,32.33
2019-04-09T23:39:38.215Z,31.00
2019-04-09T23:42:26.711Z,31.63
2019-04-09T23:45:16.490Z,30.07
2019-04-09T23:48:06.712Z,29.47
2019-04-09T23:50:56.121Z,31.47
2019-04-09T23:53:45.353Z,29.10
2019-04-09T23:56:33.703Z,30.17
2019-04-09T23:59:22.185Z,29.83
